createdAt,value
2022-11-24T00:01:54.477Z,4.60
2022-11-24T00:04:01.964Z,4.60
2022-11-24T00:06:07.180Z,4.60
2022-11-24T00:08:10.094Z,4.50
2022-11-24T00:10:12.802Z,4.50
2022-11-24T00:12:15.523Z,4.50
2022-11-24T00:14:18.485Z,4.40
2022-11-24T00:16:24.263Z,4.40
2022-11-24T00:18:28.113Z,4.40
2022-11-24T00:20:41.443Z,4.50
2022-11-24T00:22:44.143Z,4.50
2022-11-24T00:24:46.839Z,4.50
2022-11-24T00:26:49.645Z,4.60
2022-11-24T00:28:54.076Z,4.70
2022-11-24T00:30:57.126Z,4.80
2022-11-24T00:33:01.402Z,4.90
2022-11-24T00:35:04.547Z,4.90
2022-11-24T00:37:07.215Z,5.00
2022-11-24T00:39:13.290Z,5.10
2022-11-24T00:41:15.987Z,5.10
2022-11-24T00:43:18.963Z,5.20
2022-11-24T00:45:21.735Z,5.20
2022-11-24T00:47:24.702Z,5.30
2022-11-24T00:49:28.782Z,5.30
2022-11-24T00:51:32.065Z,5.30
2022-11-24T00:53:35.499Z,5.30
2022-11-24T00:55:38.389Z,5.30
2022-11-24T00:57:41.112Z,5.30
2022-11-24T00:59:43.793Z,5.30
2022-11-24T01:01:46.511Z,5.30
2022-11-24T01:03:49.839Z,5.30
2022-11-24T01:05:53.841Z,5.30
2022-11-24T01:07:56.560Z,5.30
2022-11-24T01:09:59.579Z,5.30
2022-11-24T01:12:02.464Z,5.30
2022-11-24T01:14:05.236Z,5.20
2022-11-24T01:16:14.074Z,5.20
2022-11-24T01:18:16.837Z,5.20
2022-11-24T01:20:20.140Z,5.10
2022-11-24T01:22:26.312Z,5.10
2022-11-24T01:24:29.104Z,5.10
2022-11-24T01:26:32.062Z,5.10
2022-11-24T01:28:35.494Z,5.10
2022-11-24T01:30:38.253Z,5.10
2022-11-24T01:32:41.548Z,5.10
2022-11-24T01:34:44.392Z,5.10
2022-11-24T01:36:47.305Z,5.10
2022-11-24T01:38:51.613Z,5.10
2022-11-24T01:41:02.282Z,5.10
2022-11-24T01:43:20.264Z,5.10
2022-11-24T01:45:31.797Z,5.00
2022-11-24T01:47:38.650Z,5.00
2022-11-24T01:49:45.756Z,5.00
2022-11-24T01:51:54.086Z,4.90
2022-11-24T01:54:01.647Z,4.90
2022-11-24T01:56:06.434Z,4.90
2022-11-24T01:58:12.829Z,4.90
2022-11-24T02:00:16.913Z,4.90
2022-11-24T02:02:20.343Z,4.90
2022-11-24T02:04:27.099Z,4.80
2022-11-24T02:06:32.573Z,4.80
2022-11-24T02:08:42.497Z,4.80
2022-11-24T02:10:48.288Z,4.80
2022-11-24T02:12:54.655Z,4.80
2022-11-24T02:14:59.324Z,4.90
2022-11-24T02:17:02.258Z,4.90
2022-11-24T02:19:09.147Z,5.00
2022-11-24T02:21:13.008Z,5.10
2022-11-24T02:23:23.244Z,5.20
2022-11-24T02:25:33.638Z,5.20
2022-11-24T02:27:37.677Z,5.30
2022-11-24T02:29:41.781Z,5.30
2022-11-24T02:31:48.639Z,5.40
2022-11-24T02:33:51.873Z,5.40
2022-11-24T02:35:54.613Z,5.40
2022-11-24T02:37:57.564Z,5.50
2022-11-24T02:40:00.421Z,5.50
2022-11-24T02:42:08.974Z,5.40
2022-11-24T02:44:16.598Z,5.40
2022-11-24T02:46:19.375Z,5.40
2022-11-24T02:48:22.564Z,5.40
2022-11-24T02:50:25.457Z,5.40
2022-11-24T02:52:28.361Z,5.40
2022-11-24T02:54:31.595Z,5.40
2022-11-24T02:56:34.729Z,5.50
2022-11-24T02:58:37.963Z,5.50
2022-11-24T03:00:42.331Z,5.60
2022-11-24T03:02:45.432Z,5.60
2022-11-24T03:04:48.386Z,5.60
2022-11-24T03:06:51.347Z,5.70
2022-11-24T03:08:54.195Z,5.70
2022-11-24T03:10:57.210Z,5.70
2022-11-24T03:12:59.946Z,5.80
2022-11-24T03:15:03.422Z,5.70
2022-11-24T03:17:07.462Z,5.70
2022-11-24T03:19:10.346Z,5.70
2022-11-24T03:21:13.030Z,5.70
2022-11-24T03:23:15.879Z,5.60
2022-11-24T03:25:18.746Z,5.50
2022-11-24T03:27:22.206Z,5.50
2022-11-24T03:29:25.032Z,5.50
2022-11-24T03:31:27.927Z,5.50
2022-11-24T03:33:31.969Z,5.60
2022-11-24T03:35:34.655Z,5.60
2022-11-24T03:37:37.424Z,5.60
2022-11-24T03:39:40.174Z,5.60
2022-11-24T03:41:42.913Z,5.50
2022-11-24T03:43:45.711Z,5.50
2022-11-24T03:45:49.427Z,5.50
2022-11-24T03:47:52.332Z,5.40
2022-11-24T03:49:56.587Z,5.40
2022-11-24T03:52:02.661Z,5.40
2022-11-24T03:54:09.558Z,5.30
2022-11-24T03:56:12.246Z,5.30
2022-11-24T03:58:15.208Z,5.30
2022-11-24T04:00:18.696Z,5.20
2022-11-24T04:02:21.400Z,5.10
2022-11-24T04:04:24.322Z,5.10
2022-11-24T04:06:28.482Z,5.00
2022-11-24T04:08:31.209Z,5.00
2022-11-24T04:10:36.791Z,5.00
2022-11-24T04:12:44.773Z,5.00
2022-11-24T04:14:47.429Z,5.10
2022-11-24T04:16:50.200Z,5.10
2022-11-24T04:18:53.249Z,5.10
2022-11-24T04:20:55.932Z,5.20
2022-11-24T04:23:00.021Z,5.20
2022-11-24T04:25:02.778Z,5.30
2022-11-24T04:27:05.618Z,5.30
2022-11-24T04:29:08.522Z,5.30
2022-11-24T04:31:11.314Z,5.30
2022-11-24T04:33:14.328Z,5.30
2022-11-24T04:35:17.194Z,5.30
2022-11-24T04:37:19.872Z,5.40
2022-11-24T04:39:28.181Z,5.40
2022-11-24T04:41:31.494Z,5.30
2022-11-24T04:43:40.280Z,5.30
2022-11-24T04:45:43.462Z,5.30
2022-11-24T04:47:46.152Z,5.20
2022-11-24T04:49:49.335Z,5.20
2022-11-24T04:51:52.208Z,5.10
2022-11-24T04:53:55.082Z,5.10
2022-11-24T04:55:59.084Z,5.10
2022-11-24T04:58:02.309Z,5.00
2022-11-24T05:00:06.000Z,5.00
2022-11-24T05:02:10.386Z,5.00
2022-11-24T05:04:15.054Z,5.00
2022-11-24T05:06:17.853Z,5.00
2022-11-24T05:08:20.534Z,5.00
2022-11-24T05:10:37.333Z,5.10
2022-11-24T05:12:41.456Z,5.20
2022-11-24T05:14:44.200Z,5.20
2022-11-24T05:16:47.033Z,5.30
2022-11-24T05:18:50.453Z,5.30
2022-11-24T05:20:53.179Z,5.30
2022-11-24T05:22:55.867Z,5.40
2022-11-24T05:24:59.395Z,5.40
2022-11-24T05:27:02.356Z,5.40
2022-11-24T05:29:06.391Z,5.50
2022-11-24T05:31:09.477Z,5.60
2022-11-24T05:33:16.892Z,5.60
2022-11-24T05:35:19.600Z,5.60
2022-11-24T05:37:22.362Z,5.70
2022-11-24T05:39:25.106Z,5.70
2022-11-24T05:41:27.871Z,5.70
2022-11-24T05:43:31.049Z,5.80
2022-11-24T05:45:35.081Z,5.80
2022-11-24T05:47:38.366Z,5.80
2022-11-24T05:49:41.162Z,5.80
2022-11-24T05:51:44.197Z,5.90
2022-11-24T05:53:46.864Z,5.90
2022-11-24T05:55:49.846Z,5.90
2022-11-24T05:57:59.085Z,5.90
2022-11-24T06:00:01.984Z,5.90
2022-11-24T06:02:06.161Z,6.00
2022-11-24T06:04:08.929Z,6.00
2022-11-24T06:06:12.027Z,6.00
2022-11-24T06:08:14.891Z,6.00
2022-11-24T06:10:18.273Z,6.10
2022-11-24T06:12:21.066Z,6.10
2022-11-24T06:14:24.224Z,6.20
2022-11-24T06:16:27.192Z,6.30
2022-11-24T06:18:31.267Z,6.40
2022-11-24T06:20:34.112Z,6.40
2022-11-24T06:22:37.172Z,6.50
2022-11-24T06:24:39.835Z,6.50
2022-11-24T06:26:43.109Z,6.50
2022-11-24T06:28:45.834Z,6.60
2022-11-24T06:30:48.671Z,6.60
2022-11-24T06:32:55.734Z,6.60
2022-11-24T06:34:59.894Z,6.60
2022-11-24T06:37:02.938Z,6.60
2022-11-24T06:39:06.680Z,6.50
2022-11-24T06:41:13.264Z,6.60
2022-11-24T06:43:16.270Z,6.50
2022-11-24T06:45:19.094Z,6.60
2022-11-24T06:47:21.800Z,6.50
2022-11-24T06:49:24.485Z,6.50
2022-11-24T06:51:28.776Z,6.60
2022-11-24T06:53:31.904Z,6.60
2022-11-24T06:55:34.586Z,6.60
2022-11-24T06:57:37.306Z,6.60
2022-11-24T06:59:39.974Z,6.60
2022-11-24T07:01:42.680Z,6.60
2022-11-24T07:03:45.910Z,6.60
2022-11-24T07:05:48.596Z,6.60
2022-11-24T07:07:52.694Z,6.60
2022-11-24T07:09:55.706Z,6.60
2022-11-24T07:11:58.380Z,6.60
2022-11-24T07:14:01.099Z,6.60
2022-11-24T07:16:12.599Z,6.70
2022-11-24T07:18:15.405Z,6.70
2022-11-24T07:20:18.283Z,6.70
2022-11-24T07:22:21.330Z,6.70
2022-11-24T07:24:25.375Z,6.80
2022-11-24T07:26:28.344Z,6.70
2022-11-24T07:28:31.375Z,6.80
2022-11-24T07:30:34.110Z,6.80
2022-11-24T07:32:36.827Z,6.80
2022-11-24T07:34:42.729Z,6.80
2022-11-24T07:36:45.665Z,6.80
2022-11-24T07:38:48.644Z,6.80
2022-11-24T07:40:52.724Z,6.90
2022-11-24T07:42:55.562Z,6.90
2022-11-24T07:44:58.306Z,7.00
2022-11-24T07:47:01.467Z,7.00
2022-11-24T07:49:04.378Z,7.00
2022-11-24T07:51:07.811Z,7.10
2022-11-24T07:53:10.721Z,7.10
2022-11-24T07:55:13.843Z,7.10
2022-11-24T07:57:18.167Z,7.10
2022-11-24T07:59:20.993Z,7.10
2022-11-24T08:01:23.935Z,7.10
2022-11-24T08:03:26.945Z,7.10
2022-11-24T08:05:30.162Z,7.10
2022-11-24T08:07:34.002Z,7.20
2022-11-24T08:09:36.742Z,7.20
2022-11-24T08:11:39.467Z,7.20
2022-11-24T08:13:44.287Z,7.20
2022-11-24T08:15:47.015Z,7.30
2022-11-24T08:17:50.188Z,7.30
2022-11-24T08:19:52.985Z,7.30
2022-11-24T08:21:55.750Z,7.30
2022-11-24T08:23:59.185Z,7.30
2022-11-24T08:26:05.414Z,7.30
2022-11-24T08:28:08.147Z,7.40
2022-11-24T08:30:13.878Z,7.30
2022-11-24T08:32:22.072Z,7.40
2022-11-24T08:34:28.332Z,7.40
2022-11-24T08:36:31.317Z,7.40
2022-11-24T08:38:34.451Z,7.40
2022-11-24T08:40:37.166Z,7.40
2022-11-24T08:42:40.018Z,7.40
2022-11-24T08:44:42.930Z,7.40
2022-11-24T08:46:47.071Z,7.40
2022-11-24T08:48:50.899Z,7.50
2022-11-24T08:50:53.762Z,7.40
2022-11-24T08:52:56.545Z,7.40
2022-11-24T08:54:59.232Z,7.40
2022-11-24T08:57:01.999Z,7.40
2022-11-24T08:59:04.864Z,7.50
2022-11-24T09:01:09.358Z,7.60
2022-11-24T09:03:13.912Z,7.70
2022-11-24T09:05:49.677Z,7.80
2022-11-24T09:07:39.684Z,7.90
2022-11-24T09:09:42.760Z,8.10
2022-11-24T09:11:45.681Z,8.10
2022-11-24T09:13:48.882Z,8.20
2022-11-24T09:15:51.766Z,8.40
2022-11-24T09:17:54.853Z,8.50
2022-11-24T09:19:59.114Z,8.70
2022-11-24T09:22:01.855Z,8.70
2022-11-24T09:24:05.525Z,8.70
2022-11-24T09:26:09.930Z,8.70
2022-11-24T09:28:12.864Z,8.70
2022-11-24T09:30:16.170Z,8.70
2022-11-24T09:32:19.135Z,8.70
2022-11-24T09:34:22.200Z,8.80
2022-11-24T09:36:26.291Z,8.80
2022-11-24T09:38:29.411Z,8.90
2022-11-24T09:40:33.551Z,8.80
2022-11-24T09:42:41.994Z,8.80
2022-11-24T09:44:57.465Z,8.80
2022-11-24T09:47:07.215Z,8.80
2022-11-24T09:49:15.011Z,8.90
2022-11-24T09:51:28.659Z,8.90
2022-11-24T09:53:38.370Z,9.00
2022-11-24T09:55:45.207Z,9.00
2022-11-24T09:57:54.711Z,9.10
2022-11-24T10:00:03.163Z,9.10
2022-11-24T10:02:12.944Z,8.90
2022-11-24T10:04:19.498Z,8.90
2022-11-24T10:06:25.876Z,9.00
2022-11-24T10:08:50.128Z,8.90
2022-11-24T10:10:59.330Z,8.90
2022-11-24T10:13:13.448Z,9.00
2022-11-24T10:15:38.619Z,9.00
2022-11-24T10:17:52.894Z,9.10
2022-11-24T10:20:04.112Z,9.10
2022-11-24T10:22:22.208Z,9.20
2022-11-24T10:25:04.877Z,9.10
2022-11-24T10:27:16.951Z,9.00
2022-11-24T10:29:25.746Z,9.00
2022-11-24T10:31:33.713Z,9.00
2022-11-24T10:33:36.906Z,8.90
2022-11-24T10:35:49.281Z,8.90
2022-11-24T10:38:07.312Z,8.90
2022-11-24T10:40:40.999Z,8.90
2022-11-24T10:42:43.569Z,9.10
2022-11-24T10:44:46.643Z,9.10
2022-11-24T10:46:49.517Z,9.20
2022-11-24T10:48:56.142Z,9.20
2022-11-24T10:51:19.354Z,9.30
2022-11-24T10:53:26.458Z,9.20
2022-11-24T10:56:00.890Z,9.30
2022-11-24T10:58:17.360Z,9.30
2022-11-24T11:00:32.755Z,9.40
2022-11-24T11:02:40.188Z,9.50
2022-11-24T11:04:43.116Z,9.40
2022-11-24T11:06:47.699Z,9.40
2022-11-24T11:08:50.932Z,9.50
2022-11-24T11:11:15.650Z,9.50
2022-11-24T11:13:26.565Z,9.50
2022-11-24T11:15:32.045Z,9.30
2022-11-24T11:17:37.603Z,9.30
2022-11-24T11:19:50.350Z,9.30
2022-11-24T11:22:01.974Z,9.30
2022-11-24T11:24:07.426Z,9.30
2022-11-24T11:26:31.867Z,9.30
2022-11-24T11:28:34.611Z,9.30
2022-11-24T11:35:27.143Z,9.60
2022-11-24T11:37:33.850Z,9.70
2022-11-24T11:39:42.480Z,9.80
2022-11-24T11:41:53.082Z,10.00
2022-11-24T11:44:06.000Z,10.10
2022-11-24T11:46:13.785Z,10.20
2022-11-24T11:48:27.228Z,10.30
2022-11-24T11:51:06.515Z,10.30
2022-11-24T11:53:16.267Z,10.40
2022-11-24T11:55:35.297Z,10.40
2022-11-24T11:57:51.453Z,10.30
2022-11-24T12:00:05.014Z,10.30
2022-11-24T12:02:48.467Z,10.20
2022-11-24T12:04:57.677Z,10.20
2022-11-24T12:07:17.357Z,10.20
2022-11-24T12:09:30.721Z,10.30
2022-11-24T12:11:40.859Z,10.30
2022-11-24T12:14:02.142Z,10.40
2022-11-24T12:16:16.505Z,10.40
2022-11-24T12:21:07.680Z,10.50
2022-11-24T12:23:21.507Z,10.50
2022-11-24T12:25:29.459Z,10.50
2022-11-24T12:27:43.570Z,10.60
2022-11-24T12:30:06.288Z,10.60
2022-11-24T12:32:23.178Z,10.60
2022-11-24T12:34:42.169Z,10.60
2022-11-24T12:36:59.619Z,10.60
2022-11-24T12:39:07.314Z,10.70
2022-11-24T12:41:41.117Z,10.70
2022-11-24T12:43:51.005Z,10.70
2022-11-24T12:46:02.889Z,10.70
2022-11-24T12:48:18.743Z,10.70
2022-11-24T12:50:25.479Z,10.60
2022-11-24T12:52:32.170Z,10.60
2022-11-24T12:54:41.074Z,10.50
2022-11-24T12:56:48.008Z,10.50
2022-11-24T12:58:56.707Z,10.40
2022-11-24T13:01:16.404Z,10.40
2022-11-24T13:03:36.579Z,10.40
2022-11-24T13:05:49.904Z,10.40
2022-11-24T13:07:57.673Z,10.40
2022-11-24T13:12:57.298Z,10.40
2022-11-24T13:15:00.155Z,10.40
2022-11-24T13:17:31.069Z,10.40
2022-11-24T13:19:39.119Z,10.40
2022-11-24T13:22:02.166Z,10.50
2022-11-24T13:24:07.029Z,10.40
2022-11-24T13:26:16.066Z,10.40
2022-11-24T13:29:03.292Z,10.40
2022-11-24T13:31:23.238Z,10.40
2022-11-24T13:33:45.087Z,10.40
2022-11-24T13:36:28.597Z,10.50
2022-11-24T13:38:41.775Z,10.60
2022-11-24T13:41:06.328Z,10.60
2022-11-24T13:43:24.238Z,10.60
2022-11-24T13:45:50.153Z,10.60
2022-11-24T13:47:52.898Z,10.50
2022-11-24T13:49:57.288Z,10.40
2022-11-24T13:52:39.899Z,10.40
2022-11-24T13:54:43.085Z,10.30
2022-11-24T13:56:47.099Z,10.30
2022-11-24T13:58:55.420Z,10.20
2022-11-24T14:01:04.823Z,10.20
2022-11-24T14:03:20.764Z,10.10
2022-11-24T14:05:34.634Z,10.00
2022-11-24T14:07:37.427Z,9.90
2022-11-24T14:09:44.357Z,9.90
2022-11-24T14:11:56.081Z,9.80
2022-11-24T14:13:59.074Z,9.70
2022-11-24T14:16:07.150Z,9.70
2022-11-24T14:18:17.779Z,9.60
2022-11-24T14:20:25.890Z,9.60
2022-11-24T14:22:34.491Z,9.60
2022-11-24T14:24:41.615Z,9.50
2022-11-24T14:26:47.530Z,9.50
2022-11-24T14:28:51.168Z,9.40
2022-11-24T14:31:08.333Z,9.40
2022-11-24T14:33:13.364Z,9.30
2022-11-24T14:35:25.974Z,9.30
2022-11-24T14:37:28.981Z,9.20
2022-11-24T14:39:31.753Z,9.10
2022-11-24T14:41:35.235Z,9.10
2022-11-24T14:43:38.001Z,9.00
2022-11-24T14:45:49.160Z,9.00
2022-11-24T14:47:52.156Z,8.80
2022-11-24T14:49:57.076Z,8.70
2022-11-24T14:52:04.099Z,8.60
2022-11-24T14:54:14.597Z,8.50
2022-11-24T14:56:26.861Z,8.40
2022-11-24T14:58:36.479Z,8.30
2022-11-24T15:00:41.826Z,8.20
2022-11-24T15:02:48.191Z,8.10
2022-11-24T15:05:05.346Z,8.00
2022-11-24T15:07:22.840Z,7.90
2022-11-24T15:09:30.738Z,7.80
2022-11-24T15:11:34.779Z,7.70
2022-11-24T15:13:39.412Z,7.70
2022-11-24T15:15:49.256Z,7.60
2022-11-24T15:17:54.558Z,7.50
2022-11-24T15:20:01.959Z,7.50
2022-11-24T15:22:36.529Z,7.30
2022-11-24T15:24:55.184Z,7.20
2022-11-24T15:27:02.019Z,7.00
2022-11-24T15:29:04.981Z,6.90
2022-11-24T15:31:11.895Z,6.90
2022-11-24T15:33:16.334Z,6.70
2022-11-24T15:35:19.526Z,6.60
2022-11-24T15:37:22.427Z,6.50
2022-11-24T15:39:27.567Z,6.40
2022-11-24T15:41:32.545Z,6.30
2022-11-24T15:43:37.390Z,6.20
2022-11-24T15:45:40.403Z,6.10
2022-11-24T15:47:43.269Z,6.00
2022-11-24T15:49:46.168Z,5.90
2022-11-24T15:51:49.613Z,5.90
2022-11-24T15:53:58.852Z,5.80
2022-11-24T15:56:09.396Z,5.80
2022-11-24T15:58:14.218Z,5.70
2022-11-24T16:00:19.276Z,5.60
2022-11-24T16:02:22.700Z,5.60
2022-11-24T16:04:25.505Z,5.50
2022-11-24T16:06:28.414Z,5.40
2022-11-24T16:08:31.160Z,5.40
2022-11-24T16:10:36.960Z,5.30
2022-11-24T16:12:41.239Z,5.20
2022-11-24T16:14:43.913Z,5.20
2022-11-24T16:16:46.661Z,5.10
2022-11-24T16:18:49.772Z,5.10
2022-11-24T16:20:52.538Z,5.00
2022-11-24T16:22:55.906Z,5.00
2022-11-24T16:24:58.600Z,4.90
2022-11-24T16:27:01.351Z,4.90
2022-11-24T16:29:06.182Z,4.80
2022-11-24T16:31:09.023Z,4.80
2022-11-24T16:33:11.944Z,4.90
2022-11-24T16:35:14.850Z,4.90
2022-11-24T16:37:17.786Z,4.90
2022-11-24T16:39:20.455Z,5.00
2022-11-24T16:41:23.345Z,5.10
2022-11-24T16:43:26.235Z,5.20
2022-11-24T16:45:30.376Z,5.10
2022-11-24T16:47:33.156Z,5.10
2022-11-24T16:49:36.015Z,5.10
2022-11-24T16:51:38.787Z,5.00
2022-11-24T16:53:41.782Z,4.90
2022-11-24T16:55:44.520Z,4.90
2022-11-24T16:57:48.293Z,4.80
2022-11-24T16:59:51.124Z,4.70
2022-11-24T17:01:55.541Z,4.70
2022-11-24T17:03:58.361Z,4.60
2022-11-24T17:06:02.212Z,4.50
2022-11-24T17:08:05.665Z,4.50
2022-11-24T17:10:09.245Z,4.50
2022-11-24T17:12:11.990Z,4.40
2022-11-24T17:14:14.992Z,4.40
2022-11-24T17:16:19.379Z,4.40
2022-11-24T17:18:25.157Z,4.30
2022-11-24T17:20:28.445Z,4.30
2022-11-24T17:22:31.173Z,4.20
2022-11-24T17:24:34.124Z,4.10
2022-11-24T17:26:37.255Z,4.10
2022-11-24T17:28:41.472Z,4.10
2022-11-24T17:30:44.243Z,4.00
2022-11-24T17:32:46.999Z,4.00
2022-11-24T17:34:51.069Z,3.90
2022-11-24T17:36:54.134Z,3.90
2022-11-24T17:38:57.288Z,3.80
2022-11-24T17:41:00.499Z,3.80
2022-11-24T17:43:03.373Z,3.80
2022-11-24T17:45:06.618Z,3.70
2022-11-24T17:47:09.334Z,3.70
2022-11-24T17:49:13.055Z,3.70
2022-11-24T17:51:18.945Z,3.70
2022-11-24T17:53:21.645Z,3.60
2022-11-24T17:55:24.483Z,3.70
2022-11-24T17:57:27.182Z,3.60
2022-11-24T17:59:29.994Z,3.60
2022-11-24T18:01:33.080Z,3.60
2022-11-24T18:03:36.268Z,3.50
2022-11-24T18:05:39.010Z,3.50
2022-11-24T18:07:43.196Z,3.40
2022-11-24T18:09:46.147Z,3.40
2022-11-24T18:11:50.516Z,3.40
2022-11-24T18:14:00.749Z,3.40
2022-11-24T18:16:05.810Z,3.30
2022-11-24T18:18:08.675Z,3.30
2022-11-24T18:20:11.930Z,3.20
2022-11-24T18:22:14.813Z,3.20
2022-11-24T18:24:23.964Z,3.20
2022-11-24T18:26:27.529Z,3.20
2022-11-24T18:28:30.679Z,3.20
2022-11-24T18:30:33.358Z,3.20
2022-11-24T18:32:36.100Z,3.10
2022-11-24T18:34:39.022Z,3.10
2022-11-24T18:36:41.748Z,3.10
2022-11-24T18:38:45.008Z,3.10
2022-11-24T18:40:53.789Z,3.10
2022-11-24T18:42:56.510Z,3.10
2022-11-24T18:44:59.353Z,3.20
2022-11-24T18:47:02.139Z,3.20
2022-11-24T18:49:06.711Z,3.30
2022-11-24T18:51:14.389Z,3.40
2022-11-24T18:53:17.106Z,3.50
2022-11-24T18:55:20.097Z,3.60
2022-11-24T18:57:24.501Z,3.60
2022-11-24T18:59:27.406Z,3.70
2022-11-24T19:01:30.998Z,3.70
2022-11-24T19:03:34.080Z,3.80
2022-11-24T19:05:37.031Z,3.80
2022-11-24T19:07:40.160Z,3.80
2022-11-24T19:09:43.552Z,3.90
2022-11-24T19:11:47.642Z,3.90
2022-11-24T19:13:52.094Z,3.90
2022-11-24T19:15:55.241Z,3.90
2022-11-24T19:17:58.033Z,3.90
2022-11-24T19:20:00.853Z,4.00
2022-11-24T19:22:04.422Z,4.00
2022-11-24T19:24:09.821Z,4.00
2022-11-24T19:26:12.759Z,3.90
2022-11-24T19:28:15.627Z,3.90
2022-11-24T19:30:19.954Z,3.80
2022-11-24T19:32:22.904Z,3.80
2022-11-24T19:34:25.598Z,3.80
2022-11-24T19:36:28.466Z,3.80
2022-11-24T19:38:32.719Z,3.80
2022-11-24T19:40:35.706Z,3.80
2022-11-24T19:42:38.652Z,3.80
2022-11-24T19:44:41.587Z,3.80
2022-11-24T19:46:45.731Z,3.70
2022-11-24T19:48:50.835Z,3.70
2022-11-24T19:50:59.410Z,3.70
2022-11-24T19:53:02.155Z,3.70
2022-11-24T19:55:05.386Z,3.70
2022-11-24T19:57:08.161Z,3.70
2022-11-24T19:59:13.780Z,3.70
2022-11-24T20:01:19.775Z,3.60
2022-11-24T20:03:24.493Z,3.60
2022-11-24T20:05:27.334Z,3.60
2022-11-24T20:07:30.093Z,3.60
2022-11-24T20:09:32.909Z,3.60
2022-11-24T20:11:36.663Z,3.60
2022-11-24T20:13:41.484Z,3.50
2022-11-24T20:15:44.320Z,3.50
2022-11-24T20:17:47.129Z,3.40
2022-11-24T20:19:51.228Z,3.40
2022-11-24T20:21:54.326Z,3.40
2022-11-24T20:23:59.032Z,3.40
2022-11-24T20:26:06.304Z,3.40
2022-11-24T20:28:09.108Z,3.40
2022-11-24T20:30:12.628Z,3.30
2022-11-24T20:32:19.405Z,3.30
2022-11-24T20:34:22.840Z,3.30
2022-11-24T20:36:28.334Z,3.30
2022-11-24T20:38:31.705Z,3.30
2022-11-24T20:40:34.416Z,3.20
2022-11-24T20:42:37.426Z,3.20
2022-11-24T20:44:40.189Z,3.20
2022-11-24T20:46:44.736Z,3.10
2022-11-24T20:48:47.930Z,3.10
2022-11-24T20:50:51.565Z,3.10
2022-11-24T20:52:56.074Z,3.00
2022-11-24T20:55:03.648Z,3.00
2022-11-24T20:57:06.423Z,3.00
2022-11-24T20:59:11.719Z,3.00
2022-11-24T21:01:16.511Z,3.00
2022-11-24T21:03:19.269Z,2.90
2022-11-24T21:05:22.148Z,2.90
2022-11-24T21:07:24.966Z,2.90
2022-11-24T21:09:29.086Z,2.90
2022-11-24T21:11:32.287Z,3.00
2022-11-24T21:13:36.759Z,3.00
2022-11-24T21:15:39.502Z,2.90
2022-11-24T21:17:42.351Z,2.90
2022-11-24T21:19:45.199Z,2.90
2022-11-24T21:21:48.775Z,2.90
2022-11-24T21:23:52.205Z,2.90
2022-11-24T21:26:05.398Z,2.80
2022-11-24T21:28:09.322Z,2.80
2022-11-24T21:30:13.265Z,2.70
2022-11-24T21:32:16.169Z,2.70
2022-11-24T21:34:19.338Z,2.60
2022-11-24T21:36:24.011Z,2.60
2022-11-24T21:38:26.962Z,2.60
2022-11-24T21:40:30.009Z,2.60
2022-11-24T21:42:34.260Z,2.60
2022-11-24T21:44:37.308Z,2.60
2022-11-24T21:46:45.030Z,2.60
2022-11-24T21:48:52.730Z,2.50
2022-11-24T21:50:55.561Z,2.60
2022-11-24T21:53:03.481Z,2.60
2022-11-24T21:55:07.198Z,2.60
2022-11-24T21:57:10.916Z,2.60
2022-11-24T21:59:14.978Z,2.60
2022-11-24T22:01:19.394Z,2.70
2022-11-24T22:03:22.456Z,2.70
2022-11-24T22:05:25.182Z,2.70
2022-11-24T22:07:31.815Z,2.70
2022-11-24T22:09:34.800Z,2.60
2022-11-24T22:11:37.545Z,2.60
2022-11-24T22:13:40.775Z,2.60
2022-11-24T22:15:44.975Z,2.60
2022-11-24T22:17:47.715Z,2.50
2022-11-24T22:19:50.586Z,2.50
2022-11-24T22:21:53.344Z,2.50
2022-11-24T22:23:56.209Z,2.50
2022-11-24T22:26:03.723Z,2.50
2022-11-24T22:28:06.494Z,2.50
2022-11-24T22:30:10.382Z,2.40
2022-11-24T22:32:14.465Z,2.40
2022-11-24T22:34:17.239Z,2.30
2022-11-24T22:36:21.904Z,2.30
2022-11-24T22:38:24.751Z,2.30
2022-11-24T22:40:27.563Z,2.20
2022-11-24T22:42:30.294Z,2.20
2022-11-24T22:44:33.348Z,2.20
2022-11-24T22:46:36.262Z,2.20
2022-11-24T22:48:40.966Z,2.20
2022-11-24T22:50:43.792Z,2.20
2022-11-24T22:52:46.925Z,2.30
2022-11-24T22:54:49.618Z,2.30
2022-11-24T22:56:52.293Z,2.30
2022-11-24T22:58:55.368Z,2.30
2022-11-24T23:01:03.980Z,2.30
2022-11-24T23:03:06.958Z,2.30
2022-11-24T23:05:11.317Z,2.20
2022-11-24T23:07:14.106Z,2.20
2022-11-24T23:09:17.035Z,2.10
2022-11-24T23:11:24.855Z,2.10
2022-11-24T23:13:32.229Z,2.10
2022-11-24T23:15:35.078Z,2.10
2022-11-24T23:17:37.825Z,2.00
2022-11-24T23:19:40.609Z,2.00
2022-11-24T23:21:44.678Z,2.00
2022-11-24T23:23:48.293Z,1.90
2022-11-24T23:25:50.990Z,1.90
2022-11-24T23:27:53.707Z,1.90
2022-11-24T23:29:56.504Z,1.80
2022-11-24T23:31:59.362Z,1.90
2022-11-24T23:34:03.773Z,1.90
2022-11-24T23:36:08.821Z,2.00
2022-11-24T23:38:12.825Z,2.00
2022-11-24T23:40:15.687Z,2.00
2022-11-24T23:42:18.405Z,2.00
2022-11-24T23:44:21.996Z,2.00
2022-11-24T23:46:26.450Z,2.00
2022-11-24T23:48:31.826Z,2.00
2022-11-24T23:50:36.084Z,2.10
2022-11-24T23:52:38.818Z,2.10
2022-11-24T23:54:42.878Z,2.20
2022-11-24T23:56:45.691Z,2.20
2022-11-24T23:58:48.989Z,2.30
